Terminal Aerodrome Forecast
Issued by NWS Springfield, MO

Home | Current Version | Previous Version | Text Only | Print | Product List | Glossary On
Versions: 1 2 3 4 5 6 7 8 9 10 11 12 13 14 15 16 17 18 19 20 21 22 23 24 25 26 27 28 29 30 31 32
000
FTUS43 KSGF 261932 AAB
TAFSGF
TAF AMD
KSGF 261932Z 2620/2718 36012KT 4SM SHRA SCT006 OVC012
     FM262300 31011KT P6SM VCSH OVC006
     FM270100 30006KT P6SM OVC007
      TEMPO 2710/2714 3SM BR
     FM271500 29008KT P6SM SCT250=

USA.gov is the U.S. government's official web portal to all federal, state and local government web resources and services.